createdAt,value
2023-01-18T00:01:19.939Z,-2.20
2023-01-18T00:03:47.499Z,-2.00
2023-01-18T00:06:14.838Z,-2.14
2023-01-18T00:08:42.521Z,-2.27
2023-01-18T00:11:15.835Z,-2.27
2023-01-18T00:13:43.262Z,-2.17
2023-01-18T00:16:21.779Z,-2.43
2023-01-18T00:18:57.912Z,-2.52
2023-01-18T00:21:27.569Z,-2.57
2023-01-18T00:23:57.613Z,-2.13
2023-01-18T00:26:24.701Z,-2.10
2023-01-18T00:28:51.726Z,-2.10
2023-01-18T00:31:21.029Z,-2.37
2023-01-18T00:33:50.320Z,-2.33
2023-01-18T00:36:19.023Z,-2.42
2023-01-18T00:38:54.021Z,-2.55
2023-01-18T00:41:22.833Z,-2.63
2023-01-18T00:43:51.530Z,-2.64
2023-01-18T00:46:25.862Z,-2.78
2023-01-18T00:48:54.654Z,-2.76
2023-01-18T00:51:25.283Z,-2.52
2023-01-18T00:53:52.400Z,-2.38
2023-01-18T00:56:22.336Z,-2.26
2023-01-18T00:58:49.526Z,-2.37
2023-01-18T01:01:17.184Z,-2.39
2023-01-18T01:04:03.080Z,-2.32
2023-01-18T01:06:44.777Z,-2.29
2023-01-18T01:09:21.112Z,-2.19
2023-01-18T01:12:07.984Z,-2.32
2023-01-18T01:15:00.774Z,-2.11
2023-01-18T01:17:52.967Z,-2.08
2023-01-18T01:20:39.347Z,-1.92
2023-01-18T01:23:44.146Z,-1.85
2023-01-18T01:26:11.844Z,-1.74
2023-01-18T01:28:43.017Z,-1.75
2023-01-18T01:31:16.489Z,-2.09
2023-01-18T01:33:45.270Z,-2.38
2023-01-18T01:36:17.213Z,-2.41
2023-01-18T01:38:44.779Z,-2.50
2023-01-18T01:41:32.653Z,-2.64
2023-01-18T01:44:18.423Z,-2.64
2023-01-18T01:46:54.934Z,-2.62
2023-01-18T01:49:34.685Z,-2.73
2023-01-18T01:52:14.779Z,-2.47
2023-01-18T01:54:56.861Z,-2.29
2023-01-18T01:57:34.519Z,-2.30
2023-01-18T02:00:19.533Z,-2.40
2023-01-18T02:03:01.350Z,-2.64
2023-01-18T02:05:31.757Z,-2.60
2023-01-18T02:08:02.127Z,-2.54
2023-01-18T02:10:30.592Z,-2.64
2023-01-18T02:13:00.128Z,-2.53
2023-01-18T02:15:43.253Z,-2.44
2023-01-18T02:18:29.741Z,-2.32
2023-01-18T02:21:40.461Z,-2.14
2023-01-18T02:25:06.294Z,-2.08
2023-01-18T02:27:46.358Z,-2.07
2023-01-18T02:30:41.583Z,-2.02
2023-01-18T02:33:47.150Z,-1.87
2023-01-18T02:36:39.805Z,-1.63
2023-01-18T02:39:28.642Z,-1.51
2023-01-18T02:42:32.127Z,-1.33
2023-01-18T02:45:21.019Z,-1.35
2023-01-18T02:47:48.914Z,-1.20
2023-01-18T02:50:27.066Z,-1.22
2023-01-18T02:52:54.678Z,-1.38
2023-01-18T02:56:19.101Z,-1.67
2023-01-18T02:58:55.028Z,-1.92
2023-01-18T03:01:44.941Z,-2.20
2023-01-18T03:04:36.796Z,-2.38
2023-01-18T03:07:21.585Z,-2.46
2023-01-18T03:09:49.031Z,-2.43
2023-01-18T03:12:58.682Z,-2.35
2023-01-18T03:16:06.786Z,-2.04
2023-01-18T03:19:02.308Z,-2.02
2023-01-18T03:21:47.423Z,-1.76
2023-01-18T03:24:16.514Z,-1.71
2023-01-18T03:26:51.050Z,-1.62
2023-01-18T03:29:39.337Z,-1.59
2023-01-18T03:32:33.790Z,-1.58
2023-01-18T03:35:13.405Z,-1.56
2023-01-18T03:37:49.088Z,-1.56
2023-01-18T03:40:27.957Z,-1.46
2023-01-18T03:43:16.147Z,-1.30
2023-01-18T03:45:49.378Z,-1.46
2023-01-18T03:48:16.939Z,-1.48
2023-01-18T03:51:23.691Z,-1.41
2023-01-18T03:54:23.974Z,-1.47
2023-01-18T03:57:33.778Z,-1.21
2023-01-18T04:00:05.948Z,-1.22
2023-01-18T04:02:33.326Z,-1.47
2023-01-18T04:05:03.616Z,-1.53
2023-01-18T04:07:32.071Z,-1.38
2023-01-18T04:10:00.381Z,-1.38
2023-01-18T04:12:27.771Z,-1.46
2023-01-18T04:14:54.888Z,-1.39
2023-01-18T04:17:21.924Z,-1.31
2023-01-18T04:19:49.039Z,-1.34
2023-01-18T04:22:16.612Z,-1.35
2023-01-18T04:24:43.725Z,-1.27
2023-01-18T04:27:10.913Z,-1.42
2023-01-18T04:29:38.236Z,-1.40
2023-01-18T04:32:06.444Z,-1.24
2023-01-18T04:34:34.088Z,-1.19
2023-01-18T04:37:01.156Z,-1.24
2023-01-18T04:39:28.265Z,-1.48
2023-01-18T04:41:57.178Z,-1.47
2023-01-18T04:44:24.825Z,-1.30
2023-01-18T04:46:51.869Z,-1.31
2023-01-18T04:49:18.989Z,-1.23
2023-01-18T04:51:47.274Z,-1.25
2023-01-18T04:54:19.028Z,-1.32
2023-01-18T04:56:46.144Z,-1.26
2023-01-18T04:59:16.273Z,-1.06
2023-01-18T05:01:43.480Z,-1.16
2023-01-18T05:04:10.879Z,-1.29
2023-01-18T05:06:37.985Z,-1.36
2023-01-18T05:09:05.160Z,-1.31
2023-01-18T05:11:32.323Z,-1.24
2023-01-18T05:14:00.865Z,-1.24
2023-01-18T05:16:28.129Z,-1.22
2023-01-18T05:18:55.242Z,-1.25
2023-01-18T05:21:22.642Z,-1.26
2023-01-18T05:23:49.981Z,-1.30
2023-01-18T05:26:23.986Z,-1.25
2023-01-18T05:28:56.761Z,-1.21
2023-01-18T05:31:24.518Z,-1.11
2023-01-18T05:33:52.005Z,-1.08
2023-01-18T05:36:19.039Z,-0.89
2023-01-18T05:38:47.127Z,-0.70
2023-01-18T05:41:14.157Z,-0.69
2023-01-18T05:43:41.236Z,-0.76
2023-01-18T05:46:08.369Z,-0.56
2023-01-18T05:48:35.472Z,-0.34
2023-01-18T05:51:09.263Z,-0.31
2023-01-18T05:53:36.371Z,-0.37
2023-01-18T05:56:08.525Z,-0.21
2023-01-18T05:58:35.875Z,-0.48
2023-01-18T06:01:02.993Z,-0.55
2023-01-18T06:03:30.302Z,-0.73
2023-01-18T06:05:59.149Z,-0.83
2023-01-18T06:08:29.637Z,-0.73
2023-01-18T06:10:59.640Z,-0.80
2023-01-18T06:13:36.148Z,-0.80
2023-01-18T06:16:04.189Z,-0.81
2023-01-18T06:18:33.339Z,-0.82
2023-01-18T06:21:03.317Z,-0.74
2023-01-18T06:24:19.709Z,-0.91
2023-01-18T06:26:47.073Z,-1.03
2023-01-18T06:29:14.060Z,-0.85
2023-01-18T06:31:41.353Z,-1.03
2023-01-18T06:34:09.411Z,-1.20
2023-01-18T06:36:42.156Z,-1.17
2023-01-18T06:39:09.228Z,-1.28
2023-01-18T06:41:36.329Z,-1.12
2023-01-18T06:44:06.323Z,-1.06
2023-01-18T06:46:35.534Z,-1.05
2023-01-18T06:49:02.603Z,-1.12
2023-01-18T06:51:29.642Z,-1.01
2023-01-18T06:53:56.679Z,-1.02
2023-01-18T06:56:26.833Z,-1.04
2023-01-18T06:58:55.851Z,-1.09
2023-01-18T07:01:24.911Z,-1.11
2023-01-18T07:03:58.240Z,-1.11
2023-01-18T07:06:25.686Z,-1.12
2023-01-18T07:08:52.875Z,-1.08
2023-01-18T07:11:19.938Z,-0.99
2023-01-18T07:13:47.250Z,-0.98
2023-01-18T07:16:17.955Z,-0.94
2023-01-18T07:18:49.815Z,-0.95
2023-01-18T07:21:19.309Z,-0.95
2023-01-18T07:23:46.417Z,-0.96
2023-01-18T07:26:17.250Z,-0.81
2023-01-18T07:28:46.213Z,-0.89
2023-01-18T07:31:14.887Z,-0.86
2023-01-18T07:33:42.080Z,-0.89
2023-01-18T07:36:10.850Z,-0.83
2023-01-18T07:38:39.313Z,-0.78
2023-01-18T07:41:14.093Z,-0.73
2023-01-18T07:43:44.595Z,-0.82
2023-01-18T07:46:16.998Z,-0.85
2023-01-18T07:48:44.879Z,-0.84
2023-01-18T07:51:15.289Z,-0.87
2023-01-18T07:53:42.472Z,-0.84
2023-01-18T07:56:15.937Z,-0.85
2023-01-18T07:58:45.782Z,-0.77
2023-01-18T08:01:20.855Z,-0.71
2023-01-18T08:03:49.980Z,-0.73
2023-01-18T08:06:24.974Z,-0.69
2023-01-18T08:08:54.556Z,-0.66
2023-01-18T08:11:21.599Z,-0.63
2023-01-18T08:13:49.289Z,-0.63
2023-01-18T08:16:16.590Z,-0.54
2023-01-18T08:18:47.512Z,-0.58
2023-01-18T08:21:14.692Z,-0.51
2023-01-18T08:23:42.274Z,-0.60
2023-01-18T08:26:10.685Z,-0.48
2023-01-18T08:28:37.846Z,-0.42
2023-01-18T08:31:14.318Z,-0.25
2023-01-18T08:33:45.940Z,-0.34
2023-01-18T08:36:20.221Z,-0.19
2023-01-18T08:38:57.017Z,-0.25
2023-01-18T08:41:28.857Z,-0.19
2023-01-18T08:43:57.634Z,-0.11
2023-01-18T08:46:25.877Z,-0.09
2023-01-18T08:48:56.920Z,0.03
2023-01-18T08:51:25.963Z,0.00
2023-01-18T08:53:56.428Z,-0.03
2023-01-18T08:56:23.446Z,0.12
2023-01-18T08:58:52.130Z,0.13
2023-01-18T09:01:19.621Z,0.18
2023-01-18T09:03:48.746Z,0.26
2023-01-18T09:06:16.688Z,0.25
2023-01-18T09:08:47.720Z,0.38
2023-01-18T09:11:15.659Z,0.30
2023-01-18T09:13:59.464Z,0.54
2023-01-18T09:16:27.444Z,0.59
2023-01-18T09:18:56.159Z,0.44
2023-01-18T09:21:24.208Z,0.40
2023-01-18T09:23:54.153Z,0.45
2023-01-18T09:26:21.230Z,0.51
2023-01-18T09:28:52.716Z,0.50
2023-01-18T09:31:40.447Z,0.55
2023-01-18T09:34:18.774Z,0.60
2023-01-18T09:36:51.645Z,0.88
2023-01-18T09:39:21.260Z,0.80
2023-01-18T09:41:59.768Z,0.86
2023-01-18T09:44:42.168Z,1.00
2023-01-18T09:47:27.392Z,0.83
2023-01-18T09:50:02.927Z,0.95
2023-01-18T09:52:32.863Z,0.97
2023-01-18T09:55:51.651Z,0.73
2023-01-18T09:58:41.290Z,0.94
2023-01-18T10:01:33.037Z,1.15
2023-01-18T10:04:30.122Z,1.32
2023-01-18T10:07:12.315Z,1.78
2023-01-18T10:09:54.608Z,1.56
2023-01-18T10:12:42.274Z,1.67
2023-01-18T10:15:27.772Z,1.31
2023-01-18T10:17:57.616Z,1.25
2023-01-18T10:20:44.553Z,1.31
2023-01-18T10:23:35.584Z,1.58
2023-01-18T10:26:16.678Z,1.70
2023-01-18T10:29:14.422Z,1.53
2023-01-18T10:32:04.536Z,1.38
2023-01-18T10:34:39.306Z,1.42
2023-01-18T10:37:37.637Z,1.38
2023-01-18T10:40:10.184Z,1.38
2023-01-18T10:42:57.148Z,1.49
2023-01-18T10:45:34.640Z,1.79
2023-01-18T10:48:34.796Z,1.69
2023-01-18T10:51:06.675Z,1.74
2023-01-18T10:53:39.426Z,1.82
2023-01-18T10:56:26.707Z,1.71
2023-01-18T10:59:00.957Z,2.10
2023-01-18T11:01:36.239Z,2.38
2023-01-18T11:04:29.905Z,2.10
2023-01-18T11:07:03.987Z,2.05
2023-01-18T11:09:51.433Z,2.03
2023-01-18T11:12:45.581Z,1.96
2023-01-18T11:15:15.511Z,2.06
2023-01-18T11:17:56.271Z,1.93
2023-01-18T11:20:51.966Z,1.86
2023-01-18T11:23:36.365Z,2.18
2023-01-18T11:26:14.959Z,2.23
2023-01-18T11:29:06.639Z,2.30
2023-01-18T11:31:47.724Z,2.34
2023-01-18T11:34:31.658Z,2.42
2023-01-18T11:37:01.264Z,2.36
2023-01-18T11:39:37.766Z,2.28
2023-01-18T11:42:35.097Z,2.26
2023-01-18T11:45:59.513Z,2.37
2023-01-18T11:48:41.472Z,2.54
2023-01-18T11:51:50.489Z,2.39
2023-01-18T11:54:49.399Z,2.26
2023-01-18T11:57:16.606Z,2.39
2023-01-18T11:59:46.138Z,2.42
2023-01-18T12:03:40.115Z,2.26
2023-01-18T12:06:38.776Z,2.20
2023-01-18T12:09:19.125Z,2.10
2023-01-18T12:12:29.854Z,2.30
2023-01-18T12:15:22.429Z,2.50
2023-01-18T12:18:32.778Z,2.39
2023-01-18T12:21:31.300Z,2.49
2023-01-18T12:24:42.565Z,2.51
2023-01-18T12:27:43.936Z,2.58
2023-01-18T12:31:05.568Z,2.84
2023-01-18T12:34:00.222Z,2.75
2023-01-18T12:37:07.834Z,2.84
2023-01-18T12:40:24.654Z,2.60
2023-01-18T12:43:14.170Z,2.72
2023-01-18T12:46:04.651Z,2.57
2023-01-18T12:48:42.243Z,2.43
2023-01-18T12:51:21.217Z,2.66
2023-01-18T12:54:02.747Z,2.55
2023-01-18T12:56:46.433Z,2.69
2023-01-18T12:59:27.981Z,2.71
2023-01-18T13:02:33.605Z,2.76
2023-01-18T13:05:37.791Z,2.79
2023-01-18T13:08:20.223Z,2.64
2023-01-18T13:10:48.418Z,2.79
2023-01-18T13:13:26.969Z,2.88
2023-01-18T13:16:19.762Z,2.85
2023-01-18T13:19:14.118Z,2.86
2023-01-18T13:22:28.609Z,2.63
2023-01-18T13:25:46.297Z,2.83
2023-01-18T13:28:24.858Z,2.74
2023-01-18T13:31:03.028Z,2.81
2023-01-18T13:33:45.551Z,2.59
2023-01-18T13:36:17.968Z,2.67
2023-01-18T13:39:07.956Z,2.63
2023-01-18T13:41:35.036Z,2.68
2023-01-18T13:44:46.006Z,2.73
2023-01-18T13:47:46.795Z,2.59
2023-01-18T13:50:28.909Z,2.59
2023-01-18T13:53:31.467Z,2.58
2023-01-18T13:56:05.041Z,2.59
2023-01-18T13:58:35.924Z,2.63
2023-01-18T14:01:18.305Z,2.55
2023-01-18T14:03:49.225Z,2.48
2023-01-18T14:06:32.518Z,2.62
2023-01-18T14:09:12.299Z,2.57
2023-01-18T14:11:49.454Z,2.63
2023-01-18T14:14:17.717Z,2.65
2023-01-18T14:17:07.859Z,2.50
2023-01-18T14:19:57.405Z,2.60
2023-01-18T14:22:54.965Z,2.56
2023-01-18T14:26:15.228Z,2.56
2023-01-18T14:28:57.188Z,2.56
2023-01-18T14:31:33.405Z,2.51
2023-01-18T14:34:31.905Z,2.59
2023-01-18T14:36:59.723Z,2.57
2023-01-18T14:39:30.021Z,2.49
2023-01-18T14:42:04.214Z,2.47
2023-01-18T14:44:57.923Z,2.44
2023-01-18T14:47:31.308Z,2.38
2023-01-18T14:50:01.657Z,2.37
2023-01-18T14:52:34.484Z,2.39
2023-01-18T14:55:02.403Z,2.44
2023-01-18T14:57:29.451Z,2.36
2023-01-18T15:00:21.493Z,2.18
2023-01-18T15:02:49.032Z,2.26
2023-01-18T15:05:20.856Z,2.27
2023-01-18T15:07:55.733Z,2.30
2023-01-18T15:10:24.191Z,2.12
2023-01-18T15:12:58.051Z,2.17
2023-01-18T15:15:39.858Z,2.07
2023-01-18T15:18:23.381Z,2.03
2023-01-18T15:21:12.753Z,2.13
2023-01-18T15:23:41.278Z,2.15
2023-01-18T15:26:08.332Z,1.93
2023-01-18T15:28:35.577Z,2.03
2023-01-18T15:31:15.865Z,1.96
2023-01-18T15:33:44.739Z,1.92
2023-01-18T15:36:12.387Z,1.92
2023-01-18T15:38:39.999Z,1.79
2023-01-18T15:41:14.570Z,1.87
2023-01-18T15:43:44.810Z,1.89
2023-01-18T15:46:17.056Z,1.95
2023-01-18T15:48:56.641Z,1.86
2023-01-18T15:51:44.436Z,1.88
2023-01-18T15:54:25.606Z,1.93
2023-01-18T15:56:56.249Z,1.85
2023-01-18T15:59:28.074Z,1.89
2023-01-18T16:02:18.890Z,1.85
2023-01-18T16:05:23.026Z,1.86
2023-01-18T16:07:55.300Z,1.90
2023-01-18T16:10:30.142Z,1.95
2023-01-18T16:13:26.016Z,1.93
2023-01-18T16:16:24.364Z,1.86
2023-01-18T16:19:30.662Z,1.87
2023-01-18T16:22:16.051Z,1.87
2023-01-18T16:25:10.076Z,1.91
2023-01-18T16:27:55.686Z,1.88
2023-01-18T16:30:38.257Z,1.86
2023-01-18T16:33:14.288Z,1.88
2023-01-18T16:35:42.092Z,1.88
2023-01-18T16:38:20.316Z,1.74
2023-01-18T16:40:50.270Z,1.66
2023-01-18T16:43:29.406Z,1.69
2023-01-18T16:45:59.869Z,1.54
2023-01-18T16:48:29.423Z,1.51
2023-01-18T16:50:59.551Z,1.46
2023-01-18T16:53:28.257Z,1.42
2023-01-18T16:55:58.580Z,1.47
2023-01-18T16:58:26.294Z,1.48
2023-01-18T17:01:11.465Z,1.53
2023-01-18T17:03:39.479Z,1.57
2023-01-18T17:06:07.356Z,1.59
2023-01-18T17:08:34.396Z,1.61
2023-01-18T17:11:01.457Z,1.49
2023-01-18T17:13:28.558Z,1.61
2023-01-18T17:15:55.530Z,1.60
2023-01-18T17:18:25.723Z,1.63
2023-01-18T17:20:54.970Z,1.67
2023-01-18T17:23:23.186Z,1.65
2023-01-18T17:25:50.221Z,1.64
2023-01-18T17:28:19.067Z,1.67
2023-01-18T17:30:50.039Z,1.54
2023-01-18T17:33:24.637Z,1.58
2023-01-18T17:35:54.571Z,1.59
2023-01-18T17:38:25.154Z,1.61
2023-01-18T17:40:52.986Z,1.60
2023-01-18T17:43:36.540Z,1.56
2023-01-18T17:46:06.598Z,1.65
2023-01-18T17:48:34.283Z,1.63
2023-01-18T17:51:01.425Z,1.63
2023-01-18T17:53:28.610Z,1.53
2023-01-18T17:55:55.660Z,1.56
2023-01-18T17:58:23.092Z,1.47
2023-01-18T18:00:52.507Z,1.53
2023-01-18T18:03:20.626Z,1.57
2023-01-18T18:05:48.008Z,1.55
2023-01-18T18:08:17.441Z,1.53
2023-01-18T18:10:44.478Z,1.40
2023-01-18T18:13:11.589Z,1.36
2023-01-18T18:15:38.710Z,1.27
2023-01-18T18:18:12.290Z,1.18
2023-01-18T18:20:49.737Z,1.17
2023-01-18T18:23:17.217Z,1.21
2023-01-18T18:25:46.027Z,1.22
2023-01-18T18:28:13.167Z,1.17
2023-01-18T18:30:40.352Z,1.21
2023-01-18T18:33:07.637Z,1.20
2023-01-18T18:35:34.739Z,1.19
2023-01-18T18:38:01.819Z,1.08
2023-01-18T18:40:28.852Z,1.03
2023-01-18T18:43:02.272Z,0.85
2023-01-18T18:45:31.940Z,0.69
2023-01-18T18:48:00.140Z,0.56
2023-01-18T18:50:27.796Z,0.25
2023-01-18T18:52:54.863Z,0.21
2023-01-18T18:55:21.995Z,0.26
2023-01-18T18:57:51.097Z,0.46
2023-01-18T19:00:18.977Z,0.52
2023-01-18T19:02:46.316Z,0.60
2023-01-18T19:05:13.387Z,0.57
2023-01-18T19:07:42.308Z,0.63
2023-01-18T19:10:11.466Z,0.62
2023-01-18T19:12:38.512Z,0.58
2023-01-18T19:15:06.340Z,0.55
2023-01-18T19:17:33.688Z,0.51
2023-01-18T19:20:00.705Z,0.47
2023-01-18T19:22:27.735Z,0.40
2023-01-18T19:24:54.775Z,0.39
2023-01-18T19:27:24.417Z,0.31
2023-01-18T19:29:53.200Z,0.32
2023-01-18T19:32:20.516Z,0.28
2023-01-18T19:34:47.507Z,0.26
2023-01-18T19:37:14.568Z,0.28
2023-01-18T19:39:41.790Z,0.22
2023-01-18T19:42:08.866Z,0.16
2023-01-18T19:44:36.007Z,0.18
2023-01-18T19:47:03.324Z,0.17
2023-01-18T19:49:32.991Z,0.09
2023-01-18T19:51:59.974Z,0.07
2023-01-18T19:54:27.073Z,0.04
2023-01-18T19:56:54.143Z,0.00
2023-01-18T19:59:21.182Z,0.03
2023-01-18T20:01:48.367Z,0.00
2023-01-18T20:04:15.744Z,-0.05
2023-01-18T20:06:46.114Z,-0.09
2023-01-18T20:09:26.985Z,-0.16
2023-01-18T20:11:59.735Z,-0.22
2023-01-18T20:14:40.395Z,-0.19
2023-01-18T20:17:10.615Z,-0.22
2023-01-18T20:19:37.634Z,-0.28
2023-01-18T20:22:04.673Z,-0.28
2023-01-18T20:24:31.734Z,-0.29
2023-01-18T20:27:14.989Z,-0.31
2023-01-18T20:29:43.363Z,-0.37
2023-01-18T20:32:16.569Z,-0.39
2023-01-18T20:34:47.925Z,-0.43
2023-01-18T20:37:16.403Z,-0.46
2023-01-18T20:39:43.627Z,-0.66
2023-01-18T20:42:10.726Z,-0.58
2023-01-18T20:44:38.096Z,-0.62
2023-01-18T20:47:05.623Z,-0.60
2023-01-18T20:49:38.339Z,-0.62
2023-01-18T20:52:07.454Z,-0.67
2023-01-18T20:54:37.807Z,-0.68
2023-01-18T20:57:09.393Z,-0.71
2023-01-18T20:59:36.440Z,-1.03
2023-01-18T21:02:04.251Z,-1.09
2023-01-18T21:04:31.414Z,-0.95
2023-01-18T21:06:58.733Z,-1.03
2023-01-18T21:09:26.138Z,-1.01
2023-01-18T21:11:53.327Z,-0.95
2023-01-18T21:14:20.432Z,-0.93
2023-01-18T21:16:48.070Z,-0.95
2023-01-18T21:19:15.184Z,-1.00
2023-01-18T21:21:42.339Z,-0.99
2023-01-18T21:24:09.382Z,-0.99
2023-01-18T21:26:37.664Z,-0.99
2023-01-18T21:29:05.616Z,-1.01
2023-01-18T21:31:32.789Z,-1.03
2023-01-18T21:33:59.888Z,-1.05
2023-01-18T21:36:27.928Z,-1.10
2023-01-18T21:38:55.257Z,-1.06
2023-01-18T21:41:40.603Z,-1.09
2023-01-18T21:44:26.141Z,-1.09
2023-01-18T21:46:53.170Z,-1.11
2023-01-18T21:50:04.073Z,-1.16
2023-01-18T21:52:47.760Z,-1.22
2023-01-18T21:55:15.614Z,-1.23
2023-01-18T21:57:42.953Z,-1.31
2023-01-18T22:00:11.520Z,-1.49
2023-01-18T22:02:38.631Z,-1.46
2023-01-18T22:05:08.468Z,-1.54
2023-01-18T22:07:35.534Z,-1.52
2023-01-18T22:10:05.944Z,-1.57
2023-01-18T22:12:35.516Z,-1.50
2023-01-18T22:15:06.980Z,-1.52
2023-01-18T22:17:34.080Z,-1.46
2023-01-18T22:20:01.781Z,-1.51
2023-01-18T22:22:28.964Z,-1.53
2023-01-18T22:24:56.984Z,-1.60
2023-01-18T22:27:24.059Z,-1.59
2023-01-18T22:29:53.091Z,-1.58
2023-01-18T22:32:21.560Z,-1.60
2023-01-18T22:34:48.564Z,-1.63
2023-01-18T22:37:15.580Z,-1.82
2023-01-18T22:39:42.581Z,-2.01
2023-01-18T22:42:09.599Z,-2.14
2023-01-18T22:44:37.432Z,-2.37
2023-01-18T22:47:04.519Z,-2.08
2023-01-18T22:49:31.511Z,-1.94
2023-01-18T22:51:58.559Z,-1.84
2023-01-18T22:54:25.729Z,-1.77
2023-01-18T22:56:52.721Z,-1.78
2023-01-18T22:59:19.741Z,-1.77
2023-01-18T23:01:46.770Z,-1.77
2023-01-18T23:04:13.798Z,-1.74
2023-01-18T23:06:47.734Z,-2.26
2023-01-18T23:09:17.578Z,-2.65
2023-01-18T23:11:47.308Z,-2.82
2023-01-18T23:14:32.951Z,-2.93
2023-01-18T23:17:18.668Z,-3.08
2023-01-18T23:19:45.700Z,-3.35
2023-01-18T23:22:12.835Z,-3.32
2023-01-18T23:24:40.042Z,-3.27
2023-01-18T23:27:11.941Z,-3.21
2023-01-18T23:29:39.775Z,-3.25
2023-01-18T23:32:07.949Z,-3.38
2023-01-18T23:34:35.309Z,-3.38
2023-01-18T23:37:02.624Z,-3.58
2023-01-18T23:39:48.421Z,-3.59
2023-01-18T23:42:33.863Z,-3.12
2023-01-18T23:45:19.831Z,-2.89
2023-01-18T23:48:05.404Z,-2.71
2023-01-18T23:50:50.642Z,-2.85
2023-01-18T23:53:36.237Z,-3.04
2023-01-18T23:56:03.248Z,-3.16
2023-01-18T23:58:30.244Z,-3.14
